Time;durP1;ratioP1;P1;durP2;ratioP2;P2;SDS_P1;SDS_P2;PMS_P1;PMS_P2;Temp;Humidity;BMP_temperature;BMP_pressure;BME280_temperature;BME280_humidity;BME280_pressure;Samples;Min_cycle;Max_cycle;Signal;HPM_P1;HPM_P2
2023/03/11 00:00:04;;;;;;;5.10;4.35;;;3.60;99.90;;;;;;2035222;29;20015;-74
2023/03/11 00:01:05;;;;;;;4.63;4.22;;;3.60;99.90;;;;;;2036217;29;20370;-75
2023/03/11 00:02:06;;;;;;;4.72;4.32;;;3.60;99.90;;;;;;2036119;29;20063;-75
2023/03/11 00:03:08;;;;;;;5.38;4.88;;;3.50;99.90;;;;;;2036045;29;20054;-75
2023/03/11 00:04:08;;;;;;;5.20;4.80;;;3.60;99.90;;;;;;2036515;29;20091;-75
2023/03/11 00:05:22;;;;;;;5.47;4.97;;;3.60;99.90;;;;;;2036343;29;20110;-75
2023/03/11 00:06:22;;;;;;;5.85;4.90;;;3.60;99.90;;;;;;2035396;29;20119;-75
2023/03/11 00:07:23;;;;;;;5.72;4.72;;;3.60;99.90;;;;;;2036864;29;20028;-74
2023/03/11 00:08:24;;;;;;;4.43;4.07;;;3.60;99.90;;;;;;2036136;29;20024;-75
2023/03/11 00:09:25;;;;;;;4.93;4.18;;;3.60;99.90;;;;;;2034715;29;20035;-74
2023/03/11 00:10:45;;;;;;;4.68;4.22;;;3.60;99.90;;;;;;2036346;29;20107;-75
2023/03/11 00:11:46;;;;;;;5.50;4.10;;;3.60;99.90;;;;;;2036810;29;20040;-74
2023/03/11 00:12:47;;;;;;;5.00;3.83;;;3.60;99.90;;;;;;2036346;29;20436;-75
2023/03/11 00:13:47;;;;;;;4.55;3.97;;;3.60;99.90;;;;;;2035968;29;20547;-74
2023/03/11 00:14:48;;;;;;;4.38;4.03;;;3.60;99.90;;;;;;2034175;29;20028;-74
2023/03/11 00:15:50;;;;;;;4.22;3.92;;;3.60;99.90;;;;;;2025916;29;20845;-75
2023/03/11 00:16:50;;;;;;;3.72;3.42;;;3.60;99.90;;;;;;2027468;29;20542;-75
2023/03/11 00:17:51;;;;;;;4.68;4.28;;;3.60;99.90;;;;;;2035684;29;20422;-74
2023/03/11 00:18:52;;;;;;;4.35;3.95;;;3.60;99.90;;;;;;2036067;29;20027;-74
2023/03/11 00:19:52;;;;;;;4.40;3.80;;;3.60;99.90;;;;;;2028617;29;20048;-74
2023/03/11 00:20:54;;;;;;;3.28;3.08;;;3.60;99.90;;;;;;2036181;29;20020;-74
2023/03/11 00:21:56;;;;;;;4.68;3.78;;;3.60;99.90;;;;;;2043181;28;20095;-74
2023/03/11 00:22:58;;;;;;;6.20;3.97;;;3.60;99.90;;;;;;2035826;29;20035;-74
2023/03/11 00:24:00;;;;;;;3.58;2.97;;;3.60;99.90;;;;;;2034099;29;20111;-75
2023/03/11 00:25:00;;;;;;;2.95;2.75;;;3.60;99.90;;;;;;2036348;29;20095;-74
2023/03/11 00:26:02;;;;;;;3.58;2.75;;;3.60;99.90;;;;;;2035716;29;20025;-74
2023/03/11 00:27:02;;;;;;;4.13;2.83;;;3.60;99.90;;;;;;2036688;29;20063;-74
2023/03/11 00:28:06;;;;;;;3.50;2.90;;;3.60;99.90;;;;;;2036024;29;20058;-74
2023/03/11 00:29:06;;;;;;;2.80;2.55;;;3.60;99.90;;;;;;2034391;29;20395;-74
2023/03/11 00:30:07;;;;;;;2.75;2.55;;;3.60;99.90;;;;;;2036170;29;20058;-75
2023/03/11 00:31:11;;;;;;;3.33;3.03;;;3.60;99.90;;;;;;2036112;29;20039;-74
2023/03/11 00:32:11;;;;;;;3.15;2.92;;;3.60;99.90;;;;;;2034007;29;20080;-74
2023/03/11 00:33:14;;;;;;;4.97;3.10;;;3.60;99.90;;;;;;2036334;29;20024;-74
2023/03/11 00:34:14;;;;;;;2.83;2.63;;;3.60;99.90;;;;;;2034892;29;20024;-75
2023/03/11 00:35:18;;;;;;;3.83;2.38;;;3.60;99.90;;;;;;2035014;29;20035;-74
2023/03/11 00:36:27;;;;;;;4.18;3.05;;;3.70;99.90;;;;;;2035673;29;20756;-74
2023/03/11 00:37:28;;;;;;;4.22;2.90;;;3.60;99.90;;;;;;2036104;29;20023;-75
2023/03/11 00:38:28;;;;;;;3.10;2.80;;;3.70;99.90;;;;;;2036545;29;20047;-74
2023/03/11 00:39:29;;;;;;;3.10;2.80;;;3.70;99.90;;;;;;2036392;29;20411;-74
2023/03/11 00:40:31;;;;;;;3.58;3.08;;;3.70;99.90;;;;;;2035071;29;20028;-74
2023/03/11 00:41:33;;;;;;;2.60;2.40;;;3.70;99.90;;;;;;2036661;29;20020;-74
2023/03/11 00:42:34;;;;;;;3.05;2.70;;;3.70;99.90;;;;;;2036794;29;20024;-74
2023/03/11 00:43:34;;;;;;;3.10;2.70;;;3.70;99.90;;;;;;2036775;29;20059;-74
2023/03/11 00:44:35;;;;;;;4.22;2.75;;;3.70;99.90;;;;;;2036831;29;20028;-73
2023/03/11 00:45:35;;;;;;;4.53;3.17;;;3.70;99.90;;;;;;2036885;29;20075;-75
2023/03/11 00:46:36;;;;;;;5.22;3.13;;;3.70;99.90;;;;;;2036315;29;20103;-74
2023/03/11 00:47:37;;;;;;;2.65;2.45;;;3.70;99.90;;;;;;2035941;29;20024;-75
2023/03/11 00:48:37;;;;;;;3.70;2.85;;;3.70;99.90;;;;;;2036244;29;20492;-74
2023/03/11 00:49:38;;;;;;;3.05;2.60;;;3.70;99.90;;;;;;2035209;29;20039;-74
2023/03/11 00:50:39;;;;;;;3.15;2.50;;;3.70;99.90;;;;;;2029594;29;20043;-74
2023/03/11 00:51:40;;;;;;;3.08;2.88;;;3.80;99.90;;;;;;2029909;29;20488;-74
2023/03/11 00:52:40;;;;;;;2.90;2.63;;;3.80;99.90;;;;;;2036377;29;20401;-75
2023/03/11 00:53:42;;;;;;;4.93;2.78;;;3.80;99.90;;;;;;2034133;29;20047;-75
2023/03/11 00:54:42;;;;;;;2.90;2.30;;;3.80;99.90;;;;;;2037253;29;20032;-75
2023/03/11 00:55:43;;;;;;;3.92;2.85;;;3.80;99.90;;;;;;2037250;29;20034;-75
2023/03/11 00:56:43;;;;;;;3.08;2.47;;;3.80;99.90;;;;;;2034911;29;20043;-74
2023/03/11 00:57:44;;;;;;;2.83;2.58;;;3.80;99.90;;;;;;2033592;29;20047;-74
2023/03/11 00:58:45;;;;;;;2.83;2.53;;;3.80;99.90;;;;;;2037505;29;20757;-74
2023/03/11 00:59:45;;;;;;;3.22;2.47;;;3.80;99.90;;;;;;2034520;29;20491;-75
2023/03/11 01:00:46;;;;;;;4.05;2.90;;;3.80;99.90;;;;;;2044006;28;20159;-74
2023/03/11 01:01:47;;;;;;;2.90;2.50;;;3.80;99.90;;;;;;2041940;28;20036;-74
2023/03/11 01:02:47;;;;;;;4.22;2.75;;;3.80;99.90;;;;;;2036281;29;20036;-75
2023/03/11 01:03:48;;;;;;;3.15;2.35;;;3.80;99.90;;;;;;2036542;29;20039;-74
2023/03/11 01:04:54;;;;;;;5.40;2.97;;;3.80;99.90;;;;;;2037925;29;20132;-74
2023/03/11 01:05:54;;;;;;;3.88;3.17;;;3.80;99.90;;;;;;2037331;29;20023;-75
2023/03/11 01:06:55;;;;;;;5.00;3.10;;;3.80;99.90;;;;;;2037065;29;20038;-74
2023/03/11 01:07:55;;;;;;;4.40;3.72;;;3.80;99.90;;;;;;2037629;29;20035;-74
2023/03/11 01:08:56;;;;;;;4.43;4.03;;;3.80;99.90;;;;;;2038062;29;20066;-74
2023/03/11 01:09:56;;;;;;;5.00;3.95;;;3.80;99.90;;;;;;2035850;29;20509;-74
2023/03/11 01:10:58;;;;;;;5.05;4.00;;;3.80;99.90;;;;;;2037147;29;20096;-74
2023/03/11 01:11:58;;;;;;;4.07;3.67;;;3.80;99.90;;;;;;2029436;29;20033;-74
2023/03/11 01:12:59;;;;;;;4.75;4.10;;;3.80;99.90;;;;;;2028690;29;20040;-74
2023/03/11 01:14:00;;;;;;;5.10;4.00;;;3.80;99.90;;;;;;2036963;29;20028;-74
2023/03/11 01:15:01;;;;;;;7.13;4.13;;;3.80;99.90;;;;;;2037868;29;20027;-74
2023/03/11 01:16:02;;;;;;;5.43;4.00;;;3.70;99.90;;;;;;2037453;29;20696;-74
2023/03/11 01:17:02;;;;;;;7.05;4.43;;;3.70;99.90;;;;;;2035730;29;20506;-74
2023/03/11 01:18:04;;;;;;;6.28;4.35;;;3.70;99.90;;;;;;2037496;29;20024;-74
2023/03/11 01:19:04;;;;;;;5.13;4.60;;;3.70;99.90;;;;;;2037748;29;20023;-74
2023/03/11 01:20:07;;;;;;;5.95;4.63;;;3.70;99.90;;;;;;2036386;29;20030;-74
2023/03/11 01:21:08;;;;;;;7.03;4.80;;;3.70;99.90;;;;;;2037977;29;20024;-74
2023/03/11 01:22:09;;;;;;;6.07;4.30;;;3.70;99.90;;;;;;2036376;29;20034;-74
2023/03/11 01:23:10;;;;;;;6.78;4.90;;;3.70;99.90;;;;;;2036591;29;20522;-74
2023/03/11 01:24:10;;;;;;;7.35;4.57;;;3.70;99.90;;;;;;2034265;29;20039;-74
2023/03/11 01:25:13;;;;;;;7.40;4.80;;;3.70;99.90;;;;;;2037103;29;20541;-74
2023/03/11 01:26:14;;;;;;;7.53;4.97;;;3.70;99.90;;;;;;2037322;29;20016;-74
2023/03/11 01:27:14;;;;;;;4.75;4.28;;;3.80;99.90;;;;;;2036830;29;20076;-74
2023/03/11 01:28:15;;;;;;;5.30;4.80;;;3.80;99.90;;;;;;2037045;29;20093;-74
2023/03/11 01:29:16;;;;;;;5.82;4.35;;;3.80;99.90;;;;;;2036370;29;20028;-74
2023/03/11 01:30:20;;;;;;;5.85;4.15;;;3.80;99.90;;;;;;2036640;29;20034;-74
2023/03/11 01:31:21;;;;;;;5.93;4.30;;;3.80;99.90;;;;;;2038193;29;20028;-74
2023/03/11 01:32:23;;;;;;;6.10;4.45;;;3.80;99.90;;;;;;2036630;29;20028;-74
2023/03/11 01:33:24;;;;;;;5.25;3.78;;;3.80;99.90;;;;;;2038298;29;20034;-74
2023/03/11 01:34:24;;;;;;;5.53;3.72;;;3.80;99.90;;;;;;2038309;29;20034;-74
2023/03/11 01:35:27;;;;;;;5.93;3.55;;;3.80;99.90;;;;;;2036073;29;20024;-74
2023/03/11 01:36:27;;;;;;;5.13;3.38;;;3.80;99.90;;;;;;2036728;29;20072;-73
2023/03/11 01:37:28;;;;;;;3.88;3.22;;;3.80;99.90;;;;;;2036323;29;20035;-72
2023/03/11 01:38:28;;;;;;;6.65;3.92;;;3.80;99.90;;;;;;2034578;29;20034;-72
2023/03/11 01:39:29;;;;;;;4.22;3.13;;;3.90;99.90;;;;;;2035246;29;20051;-72
2023/03/11 01:40:34;;;;;;;4.20;3.00;;;3.90;99.90;;;;;;2037810;29;20076;-72
2023/03/11 01:41:35;;;;;;;4.20;2.40;;;3.90;99.90;;;;;;2036994;29;20575;-72
2023/03/11 01:42:35;;;;;;;6.28;2.72;;;3.90;99.90;;;;;;2038070;29;20051;-73
2023/03/11 01:43:37;;;;;;;4.32;2.70;;;3.90;99.90;;;;;;2037292;29;20079;-72
2023/03/11 01:44:38;;;;;;;4.88;2.40;;;3.90;99.90;;;;;;2036735;29;20055;-72
2023/03/11 01:45:49;;;;;;;2.60;1.98;;;3.90;99.90;;;;;;2037851;29;20032;-72
2023/03/11 01:46:52;;;;;;;4.38;2.33;;;3.90;99.90;;;;;;2036252;29;20036;-72
2023/03/11 01:47:53;;;;;;;8.88;2.25;;;3.90;99.90;;;;;;2035540;29;20028;-72
2023/03/11 01:48:54;;;;;;;5.22;2.00;;;3.90;99.90;;;;;;2037220;29;20039;-72
2023/03/11 01:49:55;;;;;;;4.18;2.28;;;3.90;99.90;;;;;;2034494;29;20031;-73
2023/03/11 01:50:56;;;;;;;6.55;2.22;;;3.90;99.90;;;;;;2044102;28;20027;-72
2023/03/11 01:52:03;;;;;;;3.97;1.95;;;3.90;99.90;;;;;;2043387;28;20019;-73
2023/03/11 01:53:04;;;;;;;3.38;1.77;;;3.90;99.90;;;;;;2037080;29;20027;-72
2023/03/11 01:54:14;;;;;;;4.05;2.08;;;3.90;99.90;;;;;;2037664;29;20032;-72
2023/03/11 01:55:17;;;;;;;4.55;2.20;;;3.80;99.90;;;;;;2037683;29;20062;-72
2023/03/11 01:56:18;;;;;;;5.25;2.00;;;3.80;99.90;;;;;;2035880;29;20036;-72
2023/03/11 01:57:20;;;;;;;3.75;2.42;;;3.80;99.90;;;;;;2037264;29;21009;-72
2023/03/11 01:58:24;;;;;;;5.93;2.40;;;3.90;99.90;;;;;;2037678;29;20476;-73
2023/03/11 01:59:32;;;;;;;7.03;2.13;;;3.90;99.90;;;;;;2036555;29;20024;-72
2023/03/11 02:00:33;;;;;;;3.58;2.17;;;3.90;99.90;;;;;;2027712;29;20051;-72
2023/03/11 02:01:38;;;;;;;4.57;2.35;;;3.90;99.90;;;;;;2024210;29;20063;-72
2023/03/11 02:02:52;;;;;;;4.88;1.98;;;3.90;99.90;;;;;;2030587;29;20024;-72
2023/03/11 02:03:53;;;;;;;4.90;2.00;;;3.90;99.90;;;;;;2032647;29;20035;-72
2023/03/11 02:04:55;;;;;;;4.82;1.90;;;3.90;99.90;;;;;;2036905;29;20020;-72
2023/03/11 02:05:58;;;;;;;2.75;2.20;;;3.90;99.90;;;;;;2036688;29;20028;-72
2023/03/11 02:07:00;;;;;;;2.33;1.65;;;3.90;99.90;;;;;;2036158;29;20110;-72
2023/03/11 02:08:01;;;;;;;3.75;1.80;;;3.90;99.90;;;;;;2036986;29;20031;-72
2023/03/11 02:09:02;;;;;;;3.58;1.88;;;3.90;99.90;;;;;;2037194;29;20479;-72
2023/03/11 02:10:06;;;;;;;3.55;1.75;;;3.90;99.90;;;;;;2036086;29;20035;-72
2023/03/11 02:11:10;;;;;;;2.92;2.00;;;3.90;99.90;;;;;;2036202;29;20055;-73
2023/03/11 02:12:13;;;;;;;7.38;2.00;;;4.00;99.90;;;;;;2036188;29;20031;-72
2023/03/11 02:13:15;;;;;;;5.53;1.95;;;3.90;99.90;;;;;;2038697;29;20036;-73
2023/03/11 02:14:16;;;;;;;4.53;2.30;;;3.90;99.90;;;;;;2042790;28;20023;-72
2023/03/11 02:15:17;;;;;;;3.97;2.00;;;4.00;99.90;;;;;;2042994;28;20035;-73
2023/03/11 02:16:17;;;;;;;2.40;1.92;;;4.00;99.90;;;;;;2036879;29;20583;-73
2023/03/11 02:17:18;;;;;;;3.60;2.00;;;3.90;99.90;;;;;;2036365;29;20431;-72
2023/03/11 02:18:20;;;;;;;4.85;2.00;;;3.90;99.90;;;;;;2029706;29;20480;-72
2023/03/11 02:19:58;;;;;;;5.55;2.38;;;3.90;99.90;;;;;;2027662;29;20081;-72
2023/03/11 02:21:21;;;;;;;4.60;2.20;;;3.90;99.90;;;;;;2036601;29;20113;-72
2023/03/11 02:22:22;;;;;;;5.93;2.13;;;3.80;99.90;;;;;;2037804;29;20031;-72
2023/03/11 02:23:27;;;;;;;5.28;2.70;;;3.80;99.90;;;;;;2036526;29;20020;-72
2023/03/11 02:24:58;;;;;;;7.63;2.40;;;3.80;99.90;;;;;;2036350;29;20027;-72
2023/03/11 02:26:08;;;;;;;4.82;2.28;;;3.80;99.90;;;;;;2037490;29;20039;-72
2023/03/11 02:27:11;;;;;;;3.67;2.05;;;3.80;99.90;;;;;;2028470;29;20043;-72
2023/03/11 02:28:13;;;;;;;4.18;2.13;;;3.80;99.90;;;;;;2031647;29;20486;-73
2023/03/11 02:29:14;;;;;;;2.95;1.80;;;3.80;99.90;;;;;;2038061;29;20032;-72
2023/03/11 02:30:16;;;;;;;5.43;2.00;;;3.80;99.90;;;;;;2035120;29;20027;-72
2023/03/11 02:31:17;;;;;;;4.25;2.45;;;3.80;99.90;;;;;;2037261;29;20110;-72
2023/03/11 02:32:19;;;;;;;5.32;1.80;;;3.80;99.90;;;;;;2036838;29;20072;-73
2023/03/11 02:33:22;;;;;;;5.57;2.55;;;3.80;99.90;;;;;;2028419;29;20385;-72
2023/03/11 02:34:26;;;;;;;4.85;2.30;;;3.90;99.90;;;;;;2021692;29;20505;-72
2023/03/11 02:35:27;;;;;;;4.43;1.58;;;3.90;99.90;;;;;;2029751;29;20032;-72
2023/03/11 02:36:40;;;;;;;4.28;1.90;;;3.90;99.90;;;;;;2035907;29;20305;-72
2023/03/11 02:37:49;;;;;;;8.88;2.25;;;3.90;99.90;;;;;;2037969;29;20991;-72
2023/03/11 02:38:50;;;;;;;3.63;1.73;;;3.90;99.90;;;;;;2035025;29;20055;-72
2023/03/11 02:39:53;;;;;;;3.70;2.15;;;3.90;99.90;;;;;;2037121;29;20036;-72
2023/03/11 02:40:59;;;;;;;6.60;2.33;;;3.90;99.90;;;;;;2030398;29;20024;-72
2023/03/11 02:42:06;;;;;;;5.40;1.92;;;3.80;99.90;;;;;;2029909;29;20028;-72
2023/03/11 02:43:10;;;;;;;9.95;2.35;;;3.90;99.90;;;;;;2036747;29;20538;-72
2023/03/11 02:44:14;;;;;;;5.32;1.95;;;3.90;99.90;;;;;;2038105;29;20024;-72
2023/03/11 02:45:19;;;;;;;6.20;2.75;;;3.90;99.90;;;;;;2035999;29;20079;-72
2023/03/11 02:46:19;;;;;;;3.42;1.80;;;3.90;99.90;;;;;;2035616;29;20015;-72
2023/03/11 02:47:20;;;;;;;4.03;1.98;;;3.90;99.90;;;;;;2037582;29;20051;-72
2023/03/11 02:48:22;;;;;;;4.90;2.17;;;3.90;99.90;;;;;;2036488;29;20668;-72
2023/03/11 02:49:23;;;;;;;8.13;2.55;;;3.90;99.90;;;;;;2035306;29;20023;-72
2023/03/11 02:50:25;;;;;;;10.93;2.30;;;3.90;99.90;;;;;;2036319;29;20059;-73
2023/03/11 02:51:26;;;;;;;6.45;1.90;;;3.90;99.90;;;;;;2036782;29;20407;-72
2023/03/11 02:52:27;;;;;;;4.75;2.08;;;3.90;99.90;;;;;;2037802;29;20126;-72
2023/03/11 02:53:33;;;;;;;5.55;2.35;;;3.90;99.90;;;;;;2043808;28;20103;-73
2023/03/11 02:54:34;;;;;;;7.22;2.67;;;3.90;99.90;;;;;;2043265;28;20074;-72
2023/03/11 02:55:35;;;;;;;6.95;2.28;;;3.90;99.90;;;;;;2029187;29;20512;-72
2023/03/11 02:56:35;;;;;;;5.13;2.10;;;3.90;99.90;;;;;;2026818;29;20123;-72
2023/03/11 02:57:36;;;;;;;5.07;2.00;;;3.90;99.90;;;;;;2036125;29;20059;-73
2023/03/11 02:58:37;;;;;;;6.75;3.28;;;3.90;99.90;;;;;;2028191;29;20032;-73
2023/03/11 02:59:37;;;;;;;9.10;2.15;;;3.80;99.90;;;;;;2027826;29;20024;-72
2023/03/11 03:00:38;;;;;;;6.97;2.50;;;3.80;99.90;;;;;;2036231;29;20492;-72
2023/03/11 03:01:38;;;;;;;10.27;2.50;;;3.80;99.90;;;;;;2037954;29;20036;-72
2023/03/11 03:02:40;;;;;;;4.07;1.80;;;3.90;99.90;;;;;;2036359;29;20478;-72
2023/03/11 03:03:40;;;;;;;5.22;2.00;;;3.90;99.90;;;;;;2033925;29;20239;-72
2023/03/11 03:04:41;;;;;;;7.90;2.30;;;3.80;99.90;;;;;;2037498;29;20070;-73
2023/03/11 03:05:41;;;;;;;8.18;2.67;;;3.80;99.90;;;;;;2036473;29;20024;-72
2023/03/11 03:06:42;;;;;;;8.52;2.65;;;3.90;99.90;;;;;;2035212;29;20032;-72
2023/03/11 03:07:42;;;;;;;6.57;2.75;;;3.80;99.90;;;;;;2037288;29;20034;-73
2023/03/11 03:08:43;;;;;;;6.80;2.88;;;3.80;99.90;;;;;;2036019;29;20059;-72
2023/03/11 03:09:43;;;;;;;7.68;2.30;;;3.80;99.90;;;;;;2035111;29;20103;-73
2023/03/11 03:10:44;;;;;;;7.53;2.40;;;3.80;99.90;;;;;;2036099;29;20087;-72
2023/03/11 03:11:45;;;;;;;5.13;2.35;;;3.80;99.90;;;;;;2035237;29;20487;-72
2023/03/11 03:12:45;;;;;;;10.15;2.83;;;3.80;99.90;;;;;;2037025;29;20032;-72
2023/03/11 03:13:46;;;;;;;9.80;2.35;;;3.80;99.90;;;;;;2035625;29;20024;-72
2023/03/11 03:14:46;;;;;;;6.22;2.40;;;3.80;99.90;;;;;;2036260;29;20032;-72
2023/03/11 03:15:47;;;;;;;7.10;2.70;;;3.80;99.90;;;;;;2042596;28;20035;-72
2023/03/11 03:16:48;;;;;;;6.72;2.80;;;3.80;99.90;;;;;;2043515;28;20032;-72
2023/03/11 03:17:50;;;;;;;4.78;2.92;;;3.80;99.90;;;;;;2029183;29;20028;-72
2023/03/11 03:18:51;;;;;;;5.25;2.78;;;3.80;99.90;;;;;;2027601;29;20060;-72
2023/03/11 03:19:51;;;;;;;6.82;3.00;;;3.80;99.90;;;;;;2034239;29;20030;-72
2023/03/11 03:20:52;;;;;;;7.28;2.47;;;3.80;99.90;;;;;;2030682;29;20035;-72
2023/03/11 03:21:53;;;;;;;10.45;2.70;;;3.90;99.90;;;;;;2029365;29;20076;-72
2023/03/11 03:22:53;;;;;;;7.50;2.88;;;3.80;99.90;;;;;;2039031;29;20034;-72
2023/03/11 03:23:54;;;;;;;6.82;2.85;;;3.80;99.90;;;;;;2035811;29;20046;-72
2023/03/11 03:24:54;;;;;;;8.52;3.03;;;3.80;99.90;;;;;;2036679;29;20032;-72
2023/03/11 03:25:55;;;;;;;4.70;2.28;;;3.90;99.90;;;;;;2037097;29;20625;-72
2023/03/11 03:26:55;;;;;;;7.53;3.08;;;3.90;99.90;;;;;;2037306;29;20102;-72
2023/03/11 03:27:56;;;;;;;7.30;2.67;;;3.90;99.90;;;;;;2036995;29;20075;-72
2023/03/11 03:28:56;;;;;;;7.75;2.92;;;3.90;99.90;;;;;;2037189;29;20489;-72
2023/03/11 03:29:57;;;;;;;5.35;2.30;;;3.90;99.90;;;;;;2026454;29;20042;-72
2023/03/11 03:31:08;;;;;;;4.43;2.58;;;3.80;99.90;;;;;;2029366;29;20111;-72
2023/03/11 03:32:09;;;;;;;9.68;2.63;;;3.80;99.90;;;;;;2037800;29;20036;-72
2023/03/11 03:33:09;;;;;;;5.43;2.65;;;3.80;99.90;;;;;;2036901;29;20032;-71
2023/03/11 03:34:10;;;;;;;7.43;2.78;;;3.90;99.90;;;;;;2036896;29;20024;-72
2023/03/11 03:35:10;;;;;;;6.97;2.90;;;3.90;99.90;;;;;;2037549;29;20019;-71
2023/03/11 03:36:13;;;;;;;6.85;2.72;;;3.80;99.90;;;;;;2034962;29;20024;-72
2023/03/11 03:37:14;;;;;;;8.82;3.00;;;3.80;99.90;;;;;;2035339;29;20027;-72
2023/03/11 03:38:14;;;;;;;6.72;2.58;;;3.80;99.90;;;;;;2043347;28;20053;-72
2023/03/11 03:39:17;;;;;;;6.95;2.70;;;3.80;99.90;;;;;;2043840;28;20031;-72
2023/03/11 03:40:17;;;;;;;7.03;2.40;;;3.80;99.90;;;;;;2034640;29;20028;-72
2023/03/11 03:41:18;;;;;;;7.25;3.03;;;3.80;99.90;;;;;;2036430;29;20082;-72
2023/03/11 03:42:19;;;;;;;6.00;2.55;;;3.80;99.90;;;;;;2035429;29;20036;-72
2023/03/11 03:43:20;;;;;;;12.05;3.38;;;3.70;99.90;;;;;;2036035;29;20043;-72
2023/03/11 03:44:20;;;;;;;6.03;2.55;;;3.70;99.90;;;;;;2037824;29;20115;-72
2023/03/11 03:45:21;;;;;;;7.70;3.15;;;3.70;99.90;;;;;;2036160;29;20488;-72
2023/03/11 03:46:22;;;;;;;8.98;3.00;;;3.70;99.90;;;;;;2036529;29;20379;-72
2023/03/11 03:47:22;;;;;;;7.85;2.30;;;3.70;99.90;;;;;;2036712;29;20114;-72
2023/03/11 03:48:23;;;;;;;6.35;2.83;;;3.70;99.90;;;;;;2036599;29;20074;-72
2023/03/11 03:49:23;;;;;;;4.40;2.53;;;3.70;99.90;;;;;;2037496;29;20071;-71
2023/03/11 03:50:24;;;;;;;9.40;2.97;;;3.80;99.90;;;;;;2026935;29;20035;-71
2023/03/11 03:51:24;;;;;;;7.47;2.75;;;3.80;99.90;;;;;;2028010;29;20099;-72
2023/03/11 03:52:25;;;;;;;5.38;2.92;;;3.80;99.90;;;;;;2035977;29;20745;-72
2023/03/11 03:53:25;;;;;;;8.80;2.80;;;3.80;99.90;;;;;;2027943;29;20025;-72
2023/03/11 03:54:26;;;;;;;9.85;3.30;;;3.80;99.90;;;;;;2028024;29;20051;-72
2023/03/11 03:55:26;;;;;;;12.10;2.85;;;3.80;99.90;;;;;;2030369;29;20107;-71
2023/03/11 03:56:27;;;;;;;9.88;3.38;;;3.80;99.90;;;;;;2029465;29;20424;-72
2023/03/11 03:57:28;;;;;;;4.97;2.33;;;3.80;99.90;;;;;;2035206;29;20032;-72
2023/03/11 03:58:29;;;;;;;6.75;2.35;;;3.70;99.90;;;;;;2035398;29;20042;-72
2023/03/11 03:59:30;;;;;;;8.90;2.92;;;3.80;99.90;;;;;;2036244;29;20020;-72
2023/03/11 04:00:30;;;;;;;8.60;3.08;;;3.80;99.90;;;;;;2036396;29;20024;-71
2023/03/11 04:01:31;;;;;;;8.77;2.95;;;3.80;99.90;;;;;;2036683;29;20030;-72
2023/03/11 04:02:31;;;;;;;11.60;3.75;;;3.80;99.90;;;;;;2035491;29;20020;-72
2023/03/11 04:03:33;;;;;;;8.65;2.72;;;3.80;99.90;;;;;;2035961;29;20489;-72
2023/03/11 04:04:34;;;;;;;5.68;2.40;;;3.80;99.90;;;;;;2036009;29;20135;-72
2023/03/11 04:05:35;;;;;;;9.65;3.03;;;3.70;99.90;;;;;;2034354;29;20035;-72
2023/03/11 04:06:36;;;;;;;15.50;3.65;;;3.70;99.90;;;;;;2033217;29;20024;-72
2023/03/11 04:07:36;;;;;;;8.45;3.33;;;3.70;99.90;;;;;;2035629;29;20084;-72
2023/03/11 04:08:37;;;;;;;7.13;2.50;;;3.70;99.90;;;;;;2034691;29;20557;-72
2023/03/11 04:09:40;;;;;;;9.23;2.97;;;3.70;99.90;;;;;;2035137;29;20027;-72
2023/03/11 04:10:40;;;;;;;6.13;2.63;;;3.70;99.90;;;;;;2035427;29;20581;-72
2023/03/11 04:11:41;;;;;;;10.13;2.83;;;3.70;99.90;;;;;;2026153;29;20397;-71
2023/03/11 04:12:42;;;;;;;8.18;2.85;;;3.70;99.90;;;;;;2026959;29;20025;-72
2023/03/11 04:13:43;;;;;;;8.02;2.33;;;3.70;99.90;;;;;;2035886;29;20110;-72
2023/03/11 04:14:44;;;;;;;6.90;2.83;;;3.70;99.90;;;;;;2040900;28;20057;-72
2023/03/11 04:15:44;;;;;;;7.38;2.80;;;3.70;99.90;;;;;;2042089;28;20055;-71
2023/03/11 04:16:45;;;;;;;7.63;2.83;;;3.70;99.90;;;;;;2034738;29;20063;-72
2023/03/11 04:17:45;;;;;;;6.35;2.58;;;3.70;99.90;;;;;;2035405;29;20107;-72
2023/03/11 04:18:47;;;;;;;7.07;3.05;;;3.70;99.90;;;;;;2035492;29;20038;-72
2023/03/11 04:19:47;;;;;;;7.10;2.80;;;3.80;99.90;;;;;;2035918;29;20034;-72
2023/03/11 04:20:48;;;;;;;7.50;2.75;;;3.80;99.90;;;;;;2035685;29;20559;-72
2023/03/11 04:21:50;;;;;;;8.38;2.70;;;3.70;99.90;;;;;;2036439;29;20120;-72
2023/03/11 04:22:51;;;;;;;10.25;3.33;;;3.80;99.90;;;;;;2036257;29;20364;-72
2023/03/11 04:23:51;;;;;;;6.68;2.10;;;3.80;99.90;;;;;;2035418;29;20082;-72
2023/03/11 04:24:52;;;;;;;5.82;2.20;;;3.80;99.90;;;;;;2036113;29;20032;-72
2023/03/11 04:25:52;;;;;;;7.60;3.03;;;3.80;99.90;;;;;;2035425;29;20062;-72
2023/03/11 04:26:53;;;;;;;4.55;2.30;;;3.80;99.90;;;;;;2035700;29;20093;-72
2023/03/11 04:27:53;;;;;;;7.35;2.85;;;3.80;99.90;;;;;;2036484;29;20111;-72
2023/03/11 04:28:54;;;;;;;9.20;2.95;;;3.80;99.90;;;;;;2035158;29;20584;-72
2023/03/11 04:29:54;;;;;;;7.93;2.60;;;3.80;99.90;;;;;;2035566;29;20736;-72
2023/03/11 04:30:55;;;;;;;10.68;2.83;;;3.80;99.90;;;;;;2036251;29;20115;-72
2023/03/11 04:31:55;;;;;;;6.30;2.30;;;3.80;99.90;;;;;;2036879;29;20547;-72
2023/03/11 04:32:56;;;;;;;4.85;2.53;;;3.80;99.90;;;;;;2036350;29;20043;-72
2023/03/11 04:33:56;;;;;;;7.70;2.85;;;3.80;99.90;;;;;;2037277;29;20090;-72
2023/03/11 04:34:57;;;;;;;8.07;2.90;;;3.80;99.90;;;;;;2035256;29;20055;-72
2023/03/11 04:35:57;;;;;;;7.82;2.88;;;3.80;99.90;;;;;;2036682;29;20033;-72
2023/03/11 04:36:58;;;;;;;7.45;2.78;;;3.80;99.90;;;;;;2035194;29;20703;-72
2023/03/11 04:37:59;;;;;;;6.88;2.72;;;3.80;99.90;;;;;;2035750;29;20040;-71
2023/03/11 04:39:01;;;;;;;12.48;2.53;;;3.80;99.90;;;;;;2035899;29;20079;-72
2023/03/11 04:40:03;;;;;;;6.43;2.63;;;3.80;99.90;;;;;;2037196;29;20176;-72
2023/03/11 04:41:05;;;;;;;8.05;2.50;;;3.80;99.90;;;;;;2038674;29;20058;-72
2023/03/11 04:42:05;;;;;;;6.90;2.72;;;3.80;99.90;;;;;;2038160;29;20510;-72
2023/03/11 04:43:06;;;;;;;10.90;3.97;;;3.80;99.90;;;;;;2038901;29;20087;-72
2023/03/11 04:44:07;;;;;;;9.45;2.85;;;3.80;99.90;;;;;;2038150;29;20026;-72
2023/03/11 04:45:09;;;;;;;7.93;2.83;;;3.70;99.90;;;;;;2038256;29;20369;-72
2023/03/11 04:46:10;;;;;;;9.38;2.55;;;3.70;99.90;;;;;;2037801;29;20032;-72
2023/03/11 04:47:10;;;;;;;9.05;2.88;;;3.70;99.90;;;;;;2036465;29;20024;-72
2023/03/11 04:48:11;;;;;;;9.63;3.08;;;3.70;99.90;;;;;;2038304;29;20032;-72
2023/03/11 04:49:11;;;;;;;9.35;3.33;;;3.70;99.90;;;;;;2037247;29;20102;-72
2023/03/11 04:50:12;;;;;;;12.13;3.13;;;3.80;99.90;;;;;;2035441;29;20632;-72
2023/03/11 04:51:12;;;;;;;8.00;3.05;;;3.70;99.90;;;;;;2044466;28;20036;-72
2023/03/11 04:52:13;;;;;;;5.90;2.38;;;3.70;99.90;;;;;;2035818;29;20070;-72
2023/03/11 04:53:13;;;;;;;9.63;3.25;;;3.70;99.90;;;;;;2029273;29;20023;-72
2023/03/11 04:54:14;;;;;;;6.55;2.58;;;3.70;99.90;;;;;;2036583;29;20534;-71
2023/03/11 04:55:15;;;;;;;12.63;3.03;;;3.70;99.90;;;;;;2028762;29;20067;-72
2023/03/11 04:56:15;;;;;;;9.55;2.75;;;3.70;99.90;;;;;;2028675;29;20796;-72
2023/03/11 04:57:16;;;;;;;6.32;2.83;;;3.70;99.90;;;;;;2036581;29;20070;-72
2023/03/11 04:58:16;;;;;;;9.82;2.42;;;3.70;99.90;;;;;;2037525;29;20036;-72
2023/03/11 04:59:17;;;;;;;6.00;3.03;;;3.70;99.90;;;;;;2037266;29;20612;-72
2023/03/11 05:00:23;;;;;;;8.95;2.95;;;3.70;99.90;;;;;;2035705;29;20280;-72
2023/03/11 05:01:24;;;;;;;6.43;2.50;;;3.70;99.90;;;;;;2038649;29;20050;-72
2023/03/11 05:02:24;;;;;;;5.63;2.35;;;3.70;99.90;;;;;;2036660;29;20111;-72
2023/03/11 05:03:25;;;;;;;10.02;2.70;;;3.70;99.90;;;;;;2037518;29;20021;-72
2023/03/11 05:04:25;;;;;;;6.18;2.63;;;3.70;99.90;;;;;;2035877;29;20395;-72
2023/03/11 05:05:26;;;;;;;6.35;3.35;;;3.70;99.90;;;;;;2035790;29;20023;-71
2023/03/11 05:06:26;;;;;;;9.55;2.97;;;3.70;99.90;;;;;;2037432;29;20023;-72
2023/03/11 05:07:27;;;;;;;8.27;2.95;;;3.70;99.90;;;;;;2036854;29;20055;-72
2023/03/11 05:08:27;;;;;;;12.55;3.90;;;3.70;99.90;;;;;;2036917;29;20032;-72
2023/03/11 05:09:28;;;;;;;6.43;2.75;;;3.70;99.90;;;;;;2037920;29;20032;-72
2023/03/11 05:10:28;;;;;;;10.30;2.90;;;3.60;99.90;;;;;;2037807;29;20032;-72
2023/03/11 05:11:29;;;;;;;8.88;2.70;;;3.60;99.90;;;;;;2038306;29;20032;-72
2023/03/11 05:12:30;;;;;;;8.30;3.10;;;3.60;99.90;;;;;;2039867;29;20476;-72
2023/03/11 05:13:30;;;;;;;8.35;2.45;;;3.60;99.90;;;;;;2038906;29;20026;-72
2023/03/11 05:14:31;;;;;;;8.07;2.70;;;3.60;99.90;;;;;;2036871;29;20082;-72
2023/03/11 05:15:32;;;;;;;11.65;3.33;;;3.60;99.90;;;;;;2036787;29;20046;-72
2023/03/11 05:16:32;;;;;;;9.20;2.42;;;3.60;99.90;;;;;;2035261;29;20486;-72
2023/03/11 05:17:33;;;;;;;8.80;2.80;;;3.70;99.90;;;;;;2038057;29;20028;-72
2023/03/11 05:18:33;;;;;;;12.57;3.35;;;3.60;99.90;;;;;;2037136;29;20027;-72
2023/03/11 05:19:34;;;;;;;6.75;2.75;;;3.60;99.90;;;;;;2036313;29;20091;-72
2023/03/11 05:20:34;;;;;;;7.30;2.35;;;3.70;99.90;;;;;;2034500;29;20031;-72
2023/03/11 05:21:35;;;;;;;8.07;2.95;;;3.60;99.90;;;;;;2036348;29;20473;-72
2023/03/11 05:22:36;;;;;;;10.07;2.58;;;3.70;99.90;;;;;;2037788;29;20035;-72
2023/03/11 05:23:36;;;;;;;7.70;2.47;;;3.60;99.90;;;;;;2038043;29;20447;-72
2023/03/11 05:24:37;;;;;;;8.70;2.80;;;3.70;99.90;;;;;;2035887;29;20102;-72